Time;durP1;ratioP1;P1;durP2;ratioP2;P2;SDS_P1;SDS_P2;PMS_P1;PMS_P2;Temp;Humidity;BMP_temperature;BMP_pressure;BME280_temperature;BME280_humidity;BME280_pressure;Samples;Min_cycle;Max_cycle;Signal;HPM_P1;HPM_P2
2023/09/03 00:00:56;;;;;;;0.00;0.00;;;12.00;99.90;;;;;;5057405;28;20403;-69
2023/09/03 00:03:22;;;;;;;0.05;0.05;;;12.00;99.90;;;;;;5039266;28;20090;-68
2023/09/03 00:05:49;;;;;;;0.10;0.10;;;12.00;99.90;;;;;;5044395;28;20041;-69
2023/09/03 00:08:15;;;;;;;0.32;0.32;;;12.00;99.90;;;;;;5041732;28;20048;-69
2023/09/03 00:10:40;;;;;;;0.05;0.05;;;12.00;99.90;;;;;;5042780;28;20036;-69
2023/09/03 00:13:06;;;;;;;0.15;0.08;;;12.00;99.90;;;;;;5039917;28;20038;-68
2023/09/03 00:15:32;;;;;;;1.35;0.50;;;12.00;99.90;;;;;;5041884;28;20037;-68
2023/09/03 00:17:57;;;;;;;0.00;0.00;;;12.00;99.90;;;;;;5040825;28;20430;-69
2023/09/03 00:20:23;;;;;;;0.00;0.00;;;12.00;99.90;;;;;;5042580;28;20048;-68
2023/09/03 00:22:48;;;;;;;0.03;0.03;;;12.10;99.90;;;;;;5042893;28;20044;-68
2023/09/03 00:25:14;;;;;;;1.10;0.10;;;12.10;99.90;;;;;;5039439;28;20040;-68
2023/09/03 00:27:39;;;;;;;0.22;0.22;;;12.10;99.90;;;;;;5039658;28;20037;-68
2023/09/03 00:30:06;;;;;;;0.20;0.20;;;12.00;99.90;;;;;;5041158;28;20084;-68
2023/09/03 00:32:31;;;;;;;0.30;0.17;;;11.80;99.90;;;;;;5036611;28;20551;-67
2023/09/03 00:34:58;;;;;;;0.00;0.00;;;11.60;99.90;;;;;;5036444;28;20083;-68
2023/09/03 00:37:24;;;;;;;0.00;0.00;;;11.40;99.90;;;;;;5037969;28;20122;-68
2023/09/03 00:39:49;;;;;;;0.20;0.20;;;11.40;99.90;;;;;;5039705;28;20044;-68
2023/09/03 00:42:15;;;;;;;0.00;0.00;;;11.40;99.90;;;;;;5037522;28;20041;-68
2023/09/03 00:44:40;;;;;;;0.45;0.32;;;11.40;99.90;;;;;;5035596;28;20029;-68
2023/09/03 00:47:07;;;;;;;0.20;0.20;;;11.40;99.90;;;;;;5037589;28;20033;-69
2023/09/03 00:49:33;;;;;;;0.25;0.13;;;11.40;99.90;;;;;;5037373;28;20032;-68
2023/09/03 00:51:59;;;;;;;0.35;0.00;;;11.50;99.90;;;;;;5035802;28;20072;-68
2023/09/03 00:54:25;;;;;;;0.20;0.20;;;11.40;99.90;;;;;;5041271;28;20128;-69
2023/09/03 00:56:52;;;;;;;0.00;0.00;;;11.30;99.90;;;;;;5035542;28;20499;-68
2023/09/03 00:59:22;;;;;;;0.05;0.05;;;11.20;99.90;;;;;;5043956;28;20388;-68
2023/09/03 01:01:49;;;;;;;0.00;0.00;;;11.00;99.90;;;;;;5054602;28;20068;-69
2023/09/03 01:04:14;;;;;;;0.32;0.10;;;11.00;99.90;;;;;;5039485;28;20036;-69
2023/09/03 01:06:40;;;;;;;0.20;0.20;;;10.90;99.90;;;;;;5036857;28;20459;-69
2023/09/03 01:09:06;;;;;;;0.75;0.20;;;10.80;99.90;;;;;;5034442;28;20594;-69
2023/09/03 01:11:53;;;;;;;0.00;0.00;;;10.80;99.90;;;;;;5038815;28;20048;-69
2023/09/03 01:14:44;;;;;;;0.05;0.05;;;10.80;99.90;;;;;;5067569;28;20057;-69
2023/09/03 01:17:31;;;;;;;0.00;0.00;;;10.80;99.90;;;;;;5038190;28;20044;-69
2023/09/03 01:20:09;;;;;;;0.08;0.08;;;10.90;99.90;;;;;;5070191;28;20033;-68
2023/09/03 01:23:03;;;;;;;0.30;0.30;;;10.90;99.90;;;;;;5036830;28;20159;-70
2023/09/03 01:25:28;;;;;;;0.10;0.10;;;11.10;99.90;;;;;;5033672;28;20492;-70
2023/09/03 01:28:29;;;;;;;0.32;0.30;;;11.20;99.90;;;;;;5038043;28;20064;-70
2023/09/03 01:31:01;;;;;;;0.28;0.10;;;11.30;99.90;;;;;;5036296;28;20721;-70
2023/09/03 01:33:29;;;;;;;0.20;0.20;;;11.30;99.90;;;;;;5044564;28;20056;-70
2023/09/03 01:35:57;;;;;;;0.00;0.00;;;11.20;99.90;;;;;;5035659;28;20128;-70
2023/09/03 01:38:22;;;;;;;0.00;0.00;;;11.20;99.90;;;;;;5034830;28;20045;-70
2023/09/03 01:40:53;;;;;;;0.00;0.00;;;11.10;99.90;;;;;;5037343;28;20272;-70
2023/09/03 01:43:19;;;;;;;0.20;0.20;;;11.10;99.90;;;;;;5036645;28;20050;-70
2023/09/03 01:45:50;;;;;;;0.00;0.00;;;11.10;99.90;;;;;;5035266;28;20484;-70
2023/09/03 01:48:54;;;;;;;0.00;0.00;;;11.00;99.90;;;;;;5035529;28;20090;-70
2023/09/03 01:51:36;;;;;;;0.00;0.00;;;11.10;99.90;;;;;;5056281;28;20045;-70
2023/09/03 01:54:11;;;;;;;0.00;0.00;;;11.10;99.90;;;;;;5040116;28;20554;-70
2023/09/03 01:56:42;;;;;;;0.00;0.00;;;11.10;99.90;;;;;;5069634;28;20399;-71
2023/09/03 01:59:23;;;;;;;0.10;0.10;;;11.10;99.90;;;;;;5038353;28;20044;-71
2023/09/03 02:01:51;;;;;;;0.10;0.10;;;11.20;99.90;;;;;;5038329;28;20041;-71
2023/09/03 02:04:18;;;;;;;0.10;0.10;;;11.20;99.90;;;;;;5035311;28;20044;-71
2023/09/03 02:06:46;;;;;;;0.10;0.10;;;11.30;99.90;;;;;;5039572;28;20044;-71
2023/09/03 02:09:12;;;;;;;0.65;0.65;;;11.30;99.90;;;;;;5020474;28;20052;-70
2023/09/03 02:11:38;;;;;;;1.08;0.10;;;11.20;99.90;;;;;;5036656;28;20045;-70
2023/09/03 02:14:03;;;;;;;0.28;0.28;;;11.20;99.90;;;;;;5035423;28;20087;-70
2023/09/03 02:16:29;;;;;;;0.13;0.13;;;11.10;99.90;;;;;;5034703;28;20403;-70
2023/09/03 02:18:54;;;;;;;0.43;0.35;;;11.00;99.90;;;;;;5035183;28;20045;-70
2023/09/03 02:21:20;;;;;;;0.00;0.00;;;11.00;99.90;;;;;;5037786;28;20041;-70
2023/09/03 02:23:45;;;;;;;0.08;0.08;;;10.90;99.90;;;;;;5038347;28;20052;-70
2023/09/03 02:26:11;;;;;;;0.10;0.10;;;10.90;99.90;;;;;;5053521;28;20046;-71
2023/09/03 02:28:36;;;;;;;0.75;0.75;;;10.90;99.90;;;;;;5033636;28;20045;-71
2023/09/03 02:31:05;;;;;;;5.22;2.45;;;10.80;99.90;;;;;;5040517;28;20123;-71
2023/09/03 02:33:30;;;;;;;1.30;0.95;;;10.70;99.90;;;;;;5035341;28;20033;-71
2023/09/03 02:35:56;;;;;;;0.10;0.10;;;10.70;99.90;;;;;;5052747;28;20037;-71
2023/09/03 02:38:21;;;;;;;0.10;0.10;;;10.80;99.90;;;;;;5034915;28;20045;-70
2023/09/03 02:40:47;;;;;;;0.08;0.08;;;10.80;99.90;;;;;;5033817;28;20170;-71
2023/09/03 02:43:13;;;;;;;0.43;0.43;;;10.70;99.90;;;;;;5070729;28;20369;-71
2023/09/03 02:45:39;;;;;;;0.20;0.20;;;10.70;99.90;;;;;;5044054;28;20128;-71
2023/09/03 02:48:08;;;;;;;0.20;0.20;;;10.80;99.90;;;;;;5075474;28;20482;-70
2023/09/03 02:50:37;;;;;;;0.38;0.20;;;10.80;99.90;;;;;;5039693;28;20041;-71
2023/09/03 02:53:06;;;;;;;0.10;0.10;;;10.80;99.90;;;;;;5039188;28;20483;-71
2023/09/03 02:55:32;;;;;;;0.70;0.45;;;10.80;99.90;;;;;;5048836;28;20067;-71
2023/09/03 02:57:58;;;;;;;0.45;0.10;;;10.80;99.90;;;;;;5039271;28;20151;-71
2023/09/03 03:00:24;;;;;;;3.83;0.98;;;10.80;99.90;;;;;;5037083;28;20045;-72
2023/09/03 03:02:52;;;;;;;0.10;0.10;;;10.80;99.90;;;;;;5041002;28;20106;-71
2023/09/03 03:05:18;;;;;;;1.20;0.75;;;10.80;99.90;;;;;;5043730;28;20089;-71
2023/09/03 03:07:44;;;;;;;0.15;0.15;;;10.80;99.90;;;;;;5034650;28;20072;-71
2023/09/03 03:10:10;;;;;;;0.52;0.10;;;10.80;99.90;;;;;;5036831;28;20049;-72
2023/09/03 03:12:35;;;;;;;0.77;0.47;;;10.80;99.90;;;;;;5035319;28;20093;-72
2023/09/03 03:15:02;;;;;;;0.65;0.47;;;10.80;99.90;;;;;;5073173;28;20476;-71
2023/09/03 03:17:27;;;;;;;0.60;0.55;;;10.80;99.90;;;;;;5020579;28;20499;-71
2023/09/03 03:19:53;;;;;;;0.75;0.65;;;10.80;99.90;;;;;;5056807;28;20044;-71
2023/09/03 03:22:18;;;;;;;0.10;0.10;;;10.80;99.90;;;;;;5053361;28;20094;-72
2023/09/03 03:24:44;;;;;;;1.27;0.43;;;10.80;99.90;;;;;;5038747;28;20075;-72
2023/09/03 03:27:10;;;;;;;0.65;0.20;;;10.80;99.90;;;;;;5038422;28;20053;-72
2023/09/03 03:29:35;;;;;;;1.15;0.43;;;10.80;99.90;;;;;;5071421;28;20571;-67
2023/09/03 03:32:01;;;;;;;1.13;0.93;;;10.70;99.90;;;;;;5038296;28;20102;-67
2023/09/03 03:34:26;;;;;;;0.85;0.60;;;10.50;99.90;;;;;;5040373;28;20399;-67
2023/09/03 03:36:53;;;;;;;0.60;0.60;;;10.40;99.90;;;;;;5036792;28;20597;-66
2023/09/03 03:39:19;;;;;;;0.65;0.30;;;10.30;99.90;;;;;;5069783;28;20064;-66
2023/09/03 03:41:45;;;;;;;0.60;0.60;;;10.30;99.90;;;;;;5040950;28;20601;-67
2023/09/03 03:44:11;;;;;;;0.30;0.30;;;10.20;99.90;;;;;;5038298;28;20125;-68
2023/09/03 03:46:37;;;;;;;0.75;0.75;;;10.10;99.90;;;;;;5071047;28;20037;-67
2023/09/03 03:49:03;;;;;;;0.95;0.17;;;10.10;99.90;;;;;;5039751;28;20037;-68
2023/09/03 03:51:29;;;;;;;0.47;0.47;;;10.10;99.90;;;;;;5037746;28;20048;-68
2023/09/03 03:53:55;;;;;;;1.63;0.47;;;10.20;99.90;;;;;;5067469;28;20046;-68
2023/09/03 03:56:21;;;;;;;0.52;0.20;;;10.20;99.90;;;;;;5069400;28;20476;-68
2023/09/03 03:58:48;;;;;;;0.10;0.10;;;10.20;99.90;;;;;;5034674;28;20034;-69
2023/09/03 04:01:15;;;;;;;0.30;0.30;;;10.30;99.90;;;;;;5034593;28;20575;-69
2023/09/03 04:03:41;;;;;;;0.25;0.25;;;10.30;99.90;;;;;;5039416;28;20033;-69
2023/09/03 04:06:07;;;;;;;0.47;0.35;;;10.30;99.90;;;;;;5035877;28;20052;-69
2023/09/03 04:08:36;;;;;;;0.00;0.00;;;10.30;99.90;;;;;;5037161;28;20045;-70
2023/09/03 04:11:03;;;;;;;0.10;0.10;;;10.30;99.90;;;;;;5037280;28;20060;-69
2023/09/03 04:13:29;;;;;;;1.20;0.40;;;10.30;99.90;;;;;;5039711;28;20369;-69
2023/09/03 04:15:56;;;;;;;3.17;0.75;;;10.30;99.90;;;;;;5038996;28;20044;-68
2023/09/03 04:18:23;;;;;;;0.60;0.30;;;10.30;99.90;;;;;;5039701;28;20041;-68
2023/09/03 04:20:54;;;;;;;0.10;0.10;;;10.20;99.90;;;;;;5037620;28;20040;-69
2023/09/03 04:23:20;;;;;;;0.00;0.00;;;10.10;99.90;;;;;;5035469;28;20095;-69
2023/09/03 04:25:46;;;;;;;1.20;0.35;;;10.10;99.90;;;;;;5041658;28;20485;-69
2023/09/03 04:28:12;;;;;;;3.20;0.63;;;10.10;99.90;;;;;;5037677;28;20060;-69
2023/09/03 04:30:38;;;;;;;0.00;0.00;;;10.10;99.90;;;;;;5040284;28;20045;-69
2023/09/03 04:33:06;;;;;;;0.45;0.45;;;10.00;99.90;;;;;;5031988;28;20511;-69
2023/09/03 04:35:32;;;;;;;0.43;0.30;;;10.10;99.90;;;;;;5035845;28;20040;-69
2023/09/03 04:37:57;;;;;;;0.10;0.10;;;10.10;99.90;;;;;;5036048;28;20056;-69
2023/09/03 04:40:24;;;;;;;0.32;0.32;;;10.10;99.90;;;;;;5038850;28;20119;-69
2023/09/03 04:42:49;;;;;;;0.10;0.10;;;10.10;99.90;;;;;;5067148;28;20045;-69
2023/09/03 04:45:15;;;;;;;0.20;0.20;;;10.10;99.90;;;;;;5040694;28;20049;-69
2023/09/03 04:47:41;;;;;;;0.10;0.10;;;10.20;99.90;;;;;;5070917;28;20427;-69
2023/09/03 04:50:07;;;;;;;0.13;0.13;;;10.20;99.90;;;;;;5042320;28;20507;-70
2023/09/03 04:52:34;;;;;;;0.13;0.13;;;10.20;99.90;;;;;;5038274;28;20064;-70
2023/09/03 04:54:59;;;;;;;0.10;0.10;;;10.20;99.90;;;;;;5073997;28;20127;-70
2023/09/03 04:57:25;;;;;;;0.00;0.00;;;10.20;99.90;;;;;;5036505;28;20381;-70
2023/09/03 04:59:52;;;;;;;0.43;0.43;;;10.30;99.90;;;;;;5039957;28;20037;-70
2023/09/03 05:02:17;;;;;;;0.13;0.13;;;10.40;99.90;;;;;;5037746;28;20036;-70
2023/09/03 05:04:43;;;;;;;0.20;0.20;;;10.30;99.90;;;;;;5038327;28;20514;-70
2023/09/03 05:07:08;;;;;;;0.30;0.30;;;10.40;99.90;;;;;;5040057;28;20041;-70
2023/09/03 05:09:34;;;;;;;0.20;0.10;;;10.40;99.90;;;;;;5038906;28;20075;-71
2023/09/03 05:11:59;;;;;;;0.17;0.17;;;10.40;99.90;;;;;;5040472;28;20052;-69
2023/09/03 05:14:25;;;;;;;0.17;0.17;;;10.40;99.90;;;;;;5037700;28;20040;-69
2023/09/03 05:16:50;;;;;;;0.10;0.10;;;10.40;99.90;;;;;;5041161;28;20037;-69
2023/09/03 05:19:16;;;;;;;0.10;0.10;;;10.50;99.90;;;;;;5037479;28;20040;-70
2023/09/03 05:21:42;;;;;;;0.22;0.22;;;10.50;99.90;;;;;;5022785;28;20041;-69
2023/09/03 05:24:08;;;;;;;0.40;0.40;;;10.50;99.90;;;;;;5037090;28;20102;-69
2023/09/03 05:26:34;;;;;;;0.10;0.10;;;10.50;99.90;;;;;;5051546;28;20445;-70
2023/09/03 05:28:59;;;;;;;2.72;0.43;;;10.60;99.90;;;;;;5039099;28;20079;-70
2023/09/03 05:31:25;;;;;;;0.35;0.30;;;10.60;99.90;;;;;;5071863;28;20047;-70
2023/09/03 05:33:50;;;;;;;0.13;0.13;;;10.70;99.90;;;;;;5037862;28;21958;-70
2023/09/03 05:36:16;;;;;;;1.08;0.43;;;10.70;99.90;;;;;;5036326;28;20041;-70
2023/09/03 05:38:42;;;;;;;0.10;0.10;;;10.70;99.90;;;;;;5037281;28;20041;-70
2023/09/03 05:41:11;;;;;;;0.20;0.20;;;10.70;99.90;;;;;;5040524;28;20083;-70
2023/09/03 05:43:37;;;;;;;0.00;0.00;;;10.70;99.90;;;;;;5044914;28;20479;-70
2023/09/03 05:46:04;;;;;;;0.20;0.20;;;10.80;99.90;;;;;;5036725;28;20440;-70
2023/09/03 05:48:29;;;;;;;0.13;0.13;;;10.90;99.90;;;;;;5073913;28;20110;-70
2023/09/03 05:51:03;;;;;;;0.63;0.25;;;11.00;99.90;;;;;;5024698;28;20044;-70
2023/09/03 05:53:32;;;;;;;0.52;0.52;;;11.00;99.90;;;;;;5043431;28;20048;-70
2023/09/03 05:56:05;;;;;;;0.10;0.10;;;11.00;99.90;;;;;;5037064;28;20072;-70
2023/09/03 05:58:32;;;;;;;0.70;0.38;;;11.10;99.90;;;;;;5048024;28;20037;-70
2023/09/03 06:00:58;;;;;;;0.30;0.30;;;11.20;99.90;;;;;;5045295;28;20049;-70
2023/09/03 06:03:23;;;;;;;0.10;0.10;;;11.20;99.90;;;;;;5041515;28;20365;-70
2023/09/03 06:05:49;;;;;;;0.10;0.10;;;11.30;99.90;;;;;;5041930;28;20045;-70
2023/09/03 06:08:14;;;;;;;0.15;0.13;;;11.30;99.90;;;;;;5043772;28;20040;-70
2023/09/03 06:10:41;;;;;;;0.20;0.20;;;11.40;99.90;;;;;;5045605;28;20369;-70
2023/09/03 06:13:06;;;;;;;0.20;0.20;;;11.40;99.90;;;;;;5043445;28;20037;-70
2023/09/03 06:15:32;;;;;;;0.00;0.00;;;11.50;99.90;;;;;;5044836;28;20090;-70
2023/09/03 06:17:59;;;;;;;6.75;0.30;;;11.50;99.90;;;;;;5052432;28;20037;-70
2023/09/03 06:20:25;;;;;;;0.90;0.15;;;11.60;99.90;;;;;;5047413;28;20124;-70
2023/09/03 06:22:50;;;;;;;0.30;0.30;;;11.70;99.90;;;;;;5046832;28;20063;-70
2023/09/03 06:25:17;;;;;;;0.00;0.00;;;11.70;99.90;;;;;;5041933;28;20059;-70
2023/09/03 06:27:43;;;;;;;0.00;0.00;;;11.80;99.90;;;;;;5049345;28;20053;-70
2023/09/03 06:30:09;;;;;;;0.00;0.00;;;11.90;99.90;;;;;;5049629;28;20591;-69
2023/09/03 06:32:36;;;;;;;0.10;0.10;;;11.90;99.90;;;;;;5050130;28;20048;-69
2023/09/03 06:35:05;;;;;;;0.00;0.00;;;12.00;99.90;;;;;;5076663;28;20437;-69
2023/09/03 06:37:30;;;;;;;0.28;0.28;;;12.10;99.90;;;;;;5083982;28;20127;-70
2023/09/03 06:39:56;;;;;;;0.30;0.30;;;12.20;99.90;;;;;;5033567;28;20143;-69
2023/09/03 06:42:22;;;;;;;0.30;0.30;;;12.20;99.90;;;;;;5080107;28;20096;-68
2023/09/03 06:44:47;;;;;;;0.00;0.00;;;12.30;99.90;;;;;;5043336;28;20045;-68
2023/09/03 06:47:13;;;;;;;0.43;0.10;;;12.30;99.90;;;;;;5082403;28;20037;-67
2023/09/03 06:49:39;;;;;;;0.35;0.30;;;12.40;99.90;;;;;;5049980;28;20037;-67
2023/09/03 06:52:04;;;;;;;0.10;0.10;;;12.50;99.90;;;;;;5078490;28;20072;-68
2023/09/03 06:54:30;;;;;;;0.10;0.10;;;12.60;99.90;;;;;;5048099;28;20043;-67
2023/09/03 06:56:55;;;;;;;0.10;0.10;;;12.60;99.90;;;;;;5047485;28;20048;-67
2023/09/03 06:59:23;;;;;;;0.88;0.25;;;12.70;99.90;;;;;;5046167;28;20029;-67
2023/09/03 07:01:50;;;;;;;0.00;0.00;;;12.80;99.90;;;;;;5060722;28;20045;-67
2023/09/03 07:04:15;;;;;;;0.05;0.05;;;13.00;99.90;;;;;;5050211;28;20045;-67
2023/09/03 07:06:41;;;;;;;0.60;0.60;;;13.00;99.90;;;;;;5047410;28;20033;-67
2023/09/03 07:09:06;;;;;;;0.20;0.20;;;13.10;99.90;;;;;;5050582;28;20067;-67
2023/09/03 07:11:32;;;;;;;1.02;0.28;;;13.20;99.90;;;;;;5046361;28;20128;-67
2023/09/03 07:13:58;;;;;;;0.50;0.50;;;13.30;99.90;;;;;;5049725;28;20044;-67
2023/09/03 07:16:23;;;;;;;0.00;0.00;;;13.40;99.90;;;;;;5038535;28;20033;-67
2023/09/03 07:18:49;;;;;;;0.08;0.08;;;13.50;99.90;;;;;;5078795;28;20041;-68
2023/09/03 07:21:14;;;;;;;0.45;0.30;;;13.70;99.90;;;;;;5046456;28;20080;-68
2023/09/03 07:23:40;;;;;;;0.20;0.20;;;13.80;99.90;;;;;;5083059;28;20062;-68
2023/09/03 07:26:08;;;;;;;2.28;0.90;;;14.00;99.90;;;;;;5044341;28;20033;-68
2023/09/03 07:28:34;;;;;;;0.10;0.10;;;14.10;99.90;;;;;;5047002;28;20049;-68
2023/09/03 07:31:00;;;;;;;0.10;0.10;;;14.10;99.90;;;;;;5047877;28;20492;-68
2023/09/03 07:33:25;;;;;;;0.10;0.10;;;14.30;99.90;;;;;;5044772;28;20056;-68
2023/09/03 07:35:51;;;;;;;0.52;0.20;;;14.50;99.90;;;;;;5075892;28;20045;-68
2023/09/03 07:38:17;;;;;;;0.15;0.15;;;14.60;99.90;;;;;;5044431;28;20029;-68
2023/09/03 07:40:43;;;;;;;0.08;0.08;;;14.70;99.90;;;;;;5048735;28;20112;-68
2023/09/03 07:43:09;;;;;;;0.55;0.32;;;14.80;99.90;;;;;;5049082;28;20057;-67
2023/09/03 07:45:34;;;;;;;0.20;0.20;;;15.00;99.90;;;;;;5046197;28;20549;-68
2023/09/03 07:48:00;;;;;;;3.60;0.52;;;15.20;99.90;;;;;;5040600;28;20614;-68
2023/09/03 07:50:28;;;;;;;0.50;0.40;;;15.30;99.90;;;;;;5041175;28;20045;-72
2023/09/03 07:52:53;;;;;;;0.57;0.50;;;15.50;99.90;;;;;;5025875;28;20447;-69
2023/09/03 07:55:19;;;;;;;0.45;0.45;;;15.60;99.90;;;;;;5043509;28;20041;-71
2023/09/03 07:57:45;;;;;;;0.73;0.15;;;15.80;99.90;;;;;;5078472;28;20613;-69
2023/09/03 08:00:11;;;;;;;0.30;0.30;;;15.90;99.90;;;;;;5045941;28;20563;-69
2023/09/03 08:02:36;;;;;;;0.05;0.05;;;16.00;99.90;;;;;;5044533;28;20273;-67
2023/09/03 08:05:02;;;;;;;0.10;0.10;;;16.20;99.90;;;;;;5043118;28;20045;-68
2023/09/03 08:07:27;;;;;;;0.40;0.40;;;16.20;99.90;;;;;;5041919;28;20049;-69
2023/09/03 08:09:53;;;;;;;0.65;0.65;;;16.40;99.90;;;;;;5079552;28;20039;-71
2023/09/03 08:12:19;;;;;;;0.32;0.28;;;16.50;99.90;;;;;;5042721;28;20155;-71
2023/09/03 08:14:47;;;;;;;0.25;0.25;;;16.60;99.90;;;;;;5045198;28;20049;-69
2023/09/03 08:17:12;;;;;;;0.50;0.50;;;16.70;99.90;;;;;;5040228;28;20052;-70
2023/09/03 08:19:38;;;;;;;0.80;0.45;;;16.80;99.90;;;;;;5053934;28;20400;-69
2023/09/03 08:22:04;;;;;;;0.60;0.30;;;16.90;99.90;;;;;;5042240;28;20040;-70
2023/09/03 08:24:29;;;;;;;0.30;0.25;;;16.90;99.90;;;;;;5040023;28;20040;-70
2023/09/03 08:26:55;;;;;;;0.20;0.20;;;17.00;99.90;;;;;;5076584;28;20252;-69
2023/09/03 08:29:20;;;;;;;0.47;0.32;;;17.00;99.90;;;;;;5049767;28;20565;-72
2023/09/03 08:31:46;;;;;;;0.22;0.22;;;17.10;99.90;;;;;;5046371;28;20391;-69
2023/09/03 08:34:11;;;;;;;0.50;0.50;;;17.20;99.90;;;;;;5049423;28;20067;-69
2023/09/03 08:36:37;;;;;;;0.30;0.30;;;17.30;99.90;;;;;;5046514;28;20037;-69
2023/09/03 08:39:04;;;;;;;0.05;0.05;;;17.30;99.90;;;;;;5047997;28;20088;-70
2023/09/03 08:41:31;;;;;;;0.40;0.40;;;17.40;99.90;;;;;;5044153;28;20033;-72
2023/09/03 08:44:04;;;;;;;0.73;0.50;;;17.30;99.90;;;;;;5076984;28;20075;-70
2023/09/03 08:46:32;;;;;;;0.28;0.22;;;17.40;99.90;;;;;;5044431;28;20040;-69
2023/09/03 08:48:59;;;;;;;0.45;0.30;;;17.50;99.90;;;;;;5047422;28;20076;-70
2023/09/03 08:51:26;;;;;;;2.78;0.98;;;17.60;99.90;;;;;;5044255;28;20044;-69
2023/09/03 08:53:54;;;;;;;1.15;0.45;;;17.60;99.90;;;;;;5049354;28;20068;-69
2023/09/03 08:56:20;;;;;;;0.22;0.20;;;17.70;99.90;;;;;;5047316;28;20073;-67
2023/09/03 08:58:45;;;;;;;0.15;0.15;;;17.80;99.90;;;;;;5045559;28;20091;-67
2023/09/03 09:01:13;;;;;;;1.20;0.35;;;17.90;99.90;;;;;;5078283;28;20484;-68
2023/09/03 09:03:39;;;;;;;0.45;0.45;;;17.80;99.90;;;;;;5048563;28;20269;-68
2023/09/03 09:06:07;;;;;;;0.20;0.20;;;17.90;99.90;;;;;;5042155;28;20399;-68
2023/09/03 09:08:34;;;;;;;0.10;0.10;;;18.00;99.90;;;;;;5044788;28;20059;-67
2023/09/03 09:11:08;;;;;;;1.35;0.80;;;18.00;99.90;;;;;;5045805;28;20091;-67
2023/09/03 09:13:37;;;;;;;0.20;0.20;;;18.10;99.90;;;;;;5046069;28;20048;-68
2023/09/03 09:16:03;;;;;;;0.70;0.70;;;18.20;99.90;;;;;;5034112;28;20061;-67
2023/09/03 09:18:29;;;;;;;2.05;0.35;;;18.10;99.90;;;;;;5039896;28;20123;-68
2023/09/03 09:20:59;;;;;;;0.85;0.50;;;18.10;99.90;;;;;;5045715;28;20127;-69
2023/09/03 09:23:26;;;;;;;0.52;0.50;;;18.10;99.90;;;;;;5046884;28;20068;-69
2023/09/03 09:25:55;;;;;;;0.10;0.10;;;18.20;99.90;;;;;;5044906;28;20408;-72
2023/09/03 09:28:21;;;;;;;2.15;0.73;;;18.30;99.90;;;;;;5039345;28;20049;-71
2023/09/03 09:30:57;;;;;;;2.90;1.27;;;18.40;99.90;;;;;;5082764;28;20049;-71
2023/09/03 09:33:23;;;;;;;0.10;0.10;;;18.50;99.90;;;;;;5042301;28;20435;-71
2023/09/03 09:35:49;;;;;;;0.28;0.20;;;18.60;99.90;;;;;;5047662;28;20037;-71
2023/09/03 09:38:17;;;;;;;0.20;0.20;;;18.60;99.90;;;;;;5045115;28;20396;-70
2023/09/03 09:40:43;;;;;;;0.55;0.55;;;18.60;99.90;;;;;;5049069;28;20091;-70
2023/09/03 09:43:09;;;;;;;0.65;0.65;;;18.60;99.90;;;;;;5044581;28;20052;-71
2023/09/03 09:45:48;;;;;;;0.28;0.20;;;18.70;99.90;;;;;;5041833;28;20051;-70
2023/09/03 09:48:14;;;;;;;0.32;0.32;;;18.70;99.90;;;;;;5042061;28;20428;-73
2023/09/03 09:50:44;;;;;;;0.10;0.10;;;18.80;99.90;;;;;;5068222;28;20091;-72
2023/09/03 09:53:28;;;;;;;0.13;0.13;;;18.80;99.90;;;;;;5059629;28;20408;-70
2023/09/03 09:56:02;;;;;;;0.10;0.10;;;18.90;99.90;;;;;;5041768;28;20042;-72
2023/09/03 09:58:36;;;;;;;0.25;0.25;;;19.00;99.90;;;;;;5081279;28;20037;-69
2023/09/03 10:01:01;;;;;;;0.10;0.10;;;19.10;99.90;;;;;;5081948;28;20063;-72
2023/09/03 10:03:40;;;;;;;1.10;0.40;;;19.10;99.90;;;;;;5080222;28;20045;-72
2023/09/03 10:06:07;;;;;;;0.17;0.17;;;19.10;99.90;;;;;;5047727;28;20104;-71
2023/09/03 10:08:34;;;;;;;0.50;0.50;;;19.20;99.90;;;;;;5061383;28;20063;-69
2023/09/03 10:10:59;;;;;;;0.30;0.22;;;19.30;99.90;;;;;;5046967;28;20045;-71
2023/09/03 10:13:25;;;;;;;0.32;0.32;;;19.40;99.90;;;;;;5043219;28;20044;-70
2023/09/03 10:15:52;;;;;;;0.40;0.40;;;19.50;99.90;;;;;;5048082;28;20103;-70
2023/09/03 10:18:19;;;;;;;0.52;0.40;;;19.50;99.90;;;;;;5043454;28;20069;-69
2023/09/03 10:20:46;;;;;;;0.25;0.15;;;19.50;99.90;;;;;;5044976;28;20038;-70
2023/09/03 10:23:13;;;;;;;0.35;0.35;;;19.40;99.90;;;;;;5037355;28;20037;-69
2023/09/03 10:25:39;;;;;;;0.65;0.60;;;19.40;99.90;;;;;;5056511;28;20041;-69
2023/09/03 10:28:07;;;;;;;0.63;0.55;;;19.40;99.90;;;;;;5044907;28;20391;-69
2023/09/03 10:30:42;;;;;;;0.90;0.57;;;19.30;99.90;;;;;;5048630;28;20044;-69
2023/09/03 10:33:09;;;;;;;0.25;0.20;;;19.40;99.90;;;;;;5042051;28;20041;-70
2023/09/03 10:35:34;;;;;;;0.20;0.20;;;19.50;99.90;;;;;;5046503;28;20028;-69
2023/09/03 10:38:00;;;;;;;1.50;0.75;;;19.60;99.90;;;;;;5074493;28;20884;-70
2023/09/03 10:40:32;;;;;;;0.08;0.08;;;19.60;99.90;;;;;;5041353;28;20443;-70
2023/09/03 10:43:18;;;;;;;0.20;0.20;;;19.60;99.90;;;;;;5042465;28;20172;-70
2023/09/03 10:46:06;;;;;;;0.70;0.70;;;19.70;99.90;;;;;;5062053;28;20460;-70
2023/09/03 10:48:34;;;;;;;0.00;0.00;;;19.60;99.90;;;;;;5046369;28;20037;-68
2023/09/03 10:51:00;;;;;;;0.10;0.10;;;19.70;99.90;;;;;;5043436;28;20130;-68
2023/09/03 10:53:42;;;;;;;0.08;0.08;;;19.70;99.90;;;;;;5048211;28;20507;-68
2023/09/03 10:56:09;;;;;;;;;;;19.70;99.90;;;;;;5044639;28;20385;-69
2023/09/03 10:58:35;;;;;;;0.20;0.20;;;19.70;99.90;;;;;;5072002;28;19921;-69
2023/09/03 11:01:22;;;;;;;1.20;0.22;;;19.80;99.90;;;;;;5073511;28;20388;-68
2023/09/03 11:03:49;;;;;;;0.10;0.10;;;19.80;99.90;;;;;;5043265;28;20045;-69
2023/09/03 11:06:19;;;;;;;0.05;0.05;;;19.90;99.90;;;;;;5042672;28;20041;-68
2023/09/03 11:08:46;;;;;;;0.35;0.30;;;19.90;99.90;;;;;;5044419;28;20037;-68
2023/09/03 11:11:19;;;;;;;0.52;0.52;;;20.00;99.90;;;;;;5045375;28;20041;-70
2023/09/03 11:13:50;;;;;;;0.20;0.20;;;20.00;99.90;;;;;;5031389;28;20165;-68
2023/09/03 11:16:15;;;;;;;0.00;0.00;;;20.10;99.90;;;;;;5036824;28;20036;-69
2023/09/03 11:18:49;;;;;;;0.80;0.47;;;20.20;99.90;;;;;;5044278;28;20044;-69
2023/09/03 11:21:15;;;;;;;0.30;0.30;;;20.30;99.90;;;;;;5045988;28;20037;-70
2023/09/03 11:24:09;;;;;;;0.05;0.05;;;20.40;99.90;;;;;;5041610;28;20041;-69
2023/09/03 11:26:35;;;;;;;0.00;0.00;;;20.40;99.90;;;;;;5044265;28;20075;-68
2023/09/03 11:29:02;;;;;;;0.10;0.10;;;20.40;99.90;;;;;;5042955;28;20076;-68
2023/09/03 11:31:28;;;;;;;0.30;0.30;;;20.40;99.90;;;;;;5041044;28;20072;-68
2023/09/03 11:33:55;;;;;;;0.20;0.20;;;20.30;99.90;;;;;;5047164;28;20037;-68
2023/09/03 11:36:21;;;;;;;0.10;0.10;;;20.40;99.90;;;;;;5042534;28;20037;-68
2023/09/03 11:38:57;;;;;;;0.10;0.10;;;20.40;99.90;;;;;;5041284;28;20486;-67
2023/09/03 11:41:22;;;;;;;0.10;0.10;;;20.40;99.90;;;;;;5041066;28;20041;-69
2023/09/03 11:43:48;;;;;;;0.15;0.15;;;20.50;99.90;;;;;;5039746;28;20048;-68
2023/09/03 11:46:16;;;;;;;0.22;0.22;;;20.40;99.90;;;;;;5039312;28;20480;-67
2023/09/03 11:48:47;;;;;;;0.68;0.30;;;20.30;99.90;;;;;;5040803;28;20045;-68
2023/09/03 11:51:24;;;;;;;0.10;0.03;;;20.30;99.90;;;;;;5038104;28;20487;-68
2023/09/03 11:53:50;;;;;;;0.05;0.05;;;20.30;99.90;;;;;;5070669;28;20045;-69
2023/09/03 11:56:18;;;;;;;0.10;0.10;;;20.40;99.90;;;;;;5037301;28;20037;-69
2023/09/03 11:58:46;;;;;;;0.30;0.30;;;20.40;99.90;;;;;;5035590;28;20168;-68
2023/09/03 12:01:14;;;;;;;0.70;0.15;;;20.50;99.90;;;;;;5036806;28;20194;-68
2023/09/03 12:03:40;;;;;;;0.20;0.20;;;20.40;99.90;;;;;;5039116;28;20044;-68
2023/09/03 12:06:06;;;;;;;0.20;0.20;;;20.50;99.90;;;;;;5039285;28;20045;-68
2023/09/03 12:08:34;;;;;;;0.52;0.20;;;20.50;99.90;;;;;;5037231;28;20049;-68
2023/09/03 12:11:00;;;;;;;0.20;0.15;;;20.50;99.90;;;;;;5038045;28;20082;-68
2023/09/03 12:13:34;;;;;;;0.00;0.00;;;20.60;99.90;;;;;;5037020;28;20041;-67
2023/09/03 12:16:13;;;;;;;0.15;0.15;;;20.70;99.90;;;;;;5038843;28;20403;-68
2023/09/03 12:18:52;;;;;;;0.28;0.28;;;20.60;99.90;;;;;;5041035;28;20627;-68
2023/09/03 12:21:18;;;;;;;0.10;0.10;;;20.70;99.90;;;;;;5037422;28;20037;-68
2023/09/03 12:23:45;;;;;;;0.20;0.20;;;20.70;99.90;;;;;;5042122;28;20094;-68
2023/09/03 12:26:16;;;;;;;0.22;0.20;;;20.80;99.90;;;;;;5038672;28;20423;-69
2023/09/03 12:28:41;;;;;;;0.00;0.00;;;20.80;99.90;;;;;;5022033;28;20408;-67
2023/09/03 12:31:07;;;;;;;0.00;0.00;;;20.80;99.90;;;;;;5043032;28;20036;-68
2023/09/03 12:33:32;;;;;;;0.38;0.38;;;20.90;99.90;;;;;;5043426;28;20044;-67
2023/09/03 12:36:13;;;;;;;0.00;0.00;;;20.90;99.90;;;;;;5039209;28;20033;-67
2023/09/03 12:38:52;;;;;;;0.20;0.10;;;21.00;99.90;;;;;;5040775;28;20411;-67
2023/09/03 12:41:17;;;;;;;0.10;0.10;;;21.00;99.90;;;;;;5042487;28;20399;-68
2023/09/03 12:43:43;;;;;;;0.10;0.10;;;21.10;99.90;;;;;;5075450;28;20045;-67
2023/09/03 12:46:12;;;;;;;0.10;0.10;;;21.00;99.90;;;;;;5039984;28;20052;-68
2023/09/03 12:48:38;;;;;;;0.25;0.22;;;21.00;99.90;;;;;;5040937;28;20048;-68
2023/09/03 12:51:04;;;;;;;0.43;0.10;;;21.00;99.90;;;;;;5041658;28;20052;-67